Time;durP1;ratioP1;P1;durP2;ratioP2;P2;SDS_P1;SDS_P2;PMS_P1;PMS_P2;Temp;Humidity;BMP_temperature;BMP_pressure;BME280_temperature;BME280_humidity;BME280_pressure;Samples;Min_cycle;Max_cycle;Signal;HPM_P1;HPM_P2
2022/08/27 00:00:22;;;;;;;10.23;7.03;;;;;;;23.56;59.78;100339.81;4140430;28;20038;-64
2022/08/27 00:02:25;;;;;;;;;;;;;;;23.51;60.64;100340.00;4141676;28;20084;-64
2022/08/27 00:04:28;;;;;;;15.70;8.23;;;;;;;23.59;60.93;100343.19;4145552;28;19961;-65
2022/08/27 00:06:31;;;;;;;15.18;7.60;;;;;;;23.75;59.90;100338.09;4140391;28;20433;-64
2022/08/27 00:08:36;;;;;;;11.40;8.82;;;;;;;23.72;59.82;100337.38;4145067;28;20042;-64
2022/08/27 00:10:40;;;;;;;15.18;9.23;;;;;;;23.77;59.41;100338.00;4145182;28;20045;-64
2022/08/27 00:12:43;;;;;;;13.05;7.53;;;;;;;23.54;59.99;100342.53;4140434;28;20034;-65
2022/08/27 00:14:46;;;;;;;12.20;8.85;;;;;;;23.59;60.26;100337.00;4138300;28;20523;-64
2022/08/27 00:16:49;;;;;;;16.88;7.82;;;;;;;23.41;60.61;100339.50;4148537;28;20125;-64
2022/08/27 00:18:54;;;;;;;11.15;7.05;;;;;;;23.35;61.11;100339.75;4142542;28;20129;-64
2022/08/27 00:20:57;;;;;;;17.23;9.68;;;;;;;23.55;60.43;100330.97;4140983;28;20044;-64
2022/08/27 00:23:00;;;;;;;11.40;7.22;;;;;;;23.35;61.11;100337.13;4163082;28;20064;-64
2022/08/27 00:25:06;;;;;;;10.10;7.60;;;;;;;23.32;61.47;100343.41;4143789;28;20125;-64
2022/08/27 00:27:09;;;;;;;10.98;7.95;;;;;;;23.23;61.72;100338.47;4148573;28;20057;-64
2022/08/27 00:29:12;;;;;;;15.57;8.73;;;;;;;23.25;62.01;100330.47;4139814;28;20041;-64
2022/08/27 00:31:15;;;;;;;11.88;6.75;;;;;;;23.24;61.46;100329.56;4139310;28;20052;-64
2022/08/27 00:33:20;;;;;;;11.52;6.03;;;;;;;23.26;61.17;100319.78;4143883;28;20034;-64
2022/08/27 00:35:23;;;;;;;14.40;7.60;;;;;;;23.29;61.56;100322.31;4146082;28;20060;-64
2022/08/27 00:37:26;;;;;;;12.05;7.82;;;;;;;23.29;61.41;100319.66;4143087;28;20069;-64
2022/08/27 00:39:29;;;;;;;12.10;6.35;;;;;;;23.31;61.50;100325.75;4144475;28;20518;-64
2022/08/27 00:41:33;;;;;;;11.95;7.72;;;;;;;23.34;61.24;100319.47;4143803;28;20072;-65
2022/08/27 00:43:45;;;;;;;12.18;7.82;;;;;;;23.33;61.74;100315.97;4136347;28;20081;-65
2022/08/27 00:45:48;;;;;;;14.63;9.13;;;;;;;23.35;61.66;100315.88;4143717;28;20066;-64
2022/08/27 00:47:54;;;;;;;10.70;6.93;;;;;;;23.27;61.49;100315.34;4142851;28;20065;-64
2022/08/27 00:50:01;;;;;;;12.55;7.85;;;;;;;23.18;62.06;100308.63;4140899;28;20049;-64
2022/08/27 00:52:08;;;;;;;11.00;7.25;;;;;;;23.18;61.98;100316.56;4136224;28;20476;-64
2022/08/27 00:54:11;;;;;;;9.20;5.97;;;;;;;23.22;61.80;100312.88;4139836;28;20061;-64
2022/08/27 00:56:22;;;;;;;9.50;6.72;;;;;;;23.33;61.61;100315.06;4141428;28;20088;-64
2022/08/27 00:58:30;;;;;;;19.50;10.45;;;;;;;23.37;61.57;100307.88;4132324;28;20053;-65
2022/08/27 01:00:33;;;;;;;13.85;8.15;;;;;;;23.38;61.13;100305.16;4139862;28;20133;-65
2022/08/27 01:02:36;;;;;;;15.40;12.35;;;;;;;23.45;60.78;100308.38;4134725;28;20051;-65
2022/08/27 01:04:42;;;;;;;13.70;7.38;;;;;;;23.32;61.22;100303.59;4141931;28;20117;-65
2022/08/27 01:06:45;;;;;;;11.07;8.15;;;;;;;23.23;61.60;100303.13;4140542;28;20042;-64
2022/08/27 01:08:53;;;;;;;11.75;9.13;;;;;;;23.21;61.55;100308.47;4138895;28;20038;-64
2022/08/27 01:10:58;;;;;;;11.32;8.38;;;;;;;23.21;61.74;100310.28;4144035;28;20552;-65
2022/08/27 01:13:01;;;;;;;14.45;7.13;;;;;;;23.29;61.45;100309.03;4141504;28;20045;-64
2022/08/27 01:15:09;;;;;;;15.00;9.23;;;;;;;23.28;61.48;100307.31;4135147;28;20034;-65
2022/08/27 01:17:15;;;;;;;14.77;10.10;;;;;;;23.34;61.29;100306.19;4141813;28;20047;-65
2022/08/27 01:19:28;;;;;;;14.50;8.13;;;;;;;23.30;61.14;100302.78;4139956;28;20507;-65
2022/08/27 01:21:45;;;;;;;12.00;7.00;;;;;;;23.23;61.52;100304.00;4138321;28;20049;-65
2022/08/27 01:23:54;;;;;;;11.75;7.72;;;;;;;23.22;61.30;100302.25;4141877;28;20123;-64
2022/08/27 01:25:59;;;;;;;12.27;8.15;;;;;;;23.27;61.32;100297.63;4138934;28;20088;-65
2022/08/27 01:28:04;;;;;;;10.90;7.13;;;;;;;23.30;61.03;100294.84;4134797;28;20046;-64
2022/08/27 01:30:10;;;;;;;11.65;7.70;;;;;;;23.31;61.21;100304.53;4138373;28;20049;-65
2022/08/27 01:32:16;;;;;;;14.27;8.20;;;;;;;23.29;61.22;100308.16;4138637;28;20096;-65
2022/08/27 01:34:19;;;;;;;9.98;6.90;;;;;;;23.32;61.75;100311.56;4138898;28;20054;-65
2022/08/27 01:36:22;;;;;;;12.15;6.78;;;;;;;23.38;61.71;100304.25;4141885;28;20511;-64
2022/08/27 01:38:26;;;;;;;8.43;6.45;;;;;;;23.39;61.36;100303.34;4120819;28;20053;-65
2022/08/27 01:40:33;;;;;;;9.65;5.40;;;;;;;23.45;61.63;100306.63;4147485;28;20068;-64
2022/08/27 01:42:40;;;;;;;7.28;4.70;;;;;;;23.48;61.48;100308.25;4138403;28;20582;-64
2022/08/27 01:44:46;;;;;;;11.55;6.05;;;;;;;23.53;61.31;100306.28;4138281;28;20034;-65
2022/08/27 01:46:49;;;;;;;7.65;5.47;;;;;;;23.56;61.47;100311.47;4140739;28;20048;-64
2022/08/27 01:48:52;;;;;;;11.20;6.00;;;;;;;23.57;61.43;100307.91;4138130;28;20042;-64
2022/08/27 01:50:54;;;;;;;7.63;5.68;;;;;;;23.56;61.50;100310.63;4140847;28;20065;-64
2022/08/27 01:53:02;;;;;;;9.38;6.93;;;;;;;23.50;60.89;100307.28;4133036;28;20120;-65
2022/08/27 01:55:06;;;;;;;9.98;6.30;;;;;;;23.40;61.00;100303.28;4140599;28;20056;-64
2022/08/27 01:57:09;;;;;;;12.15;7.10;;;;;;;23.45;60.90;100308.38;4139522;28;20053;-64
2022/08/27 01:59:13;;;;;;;11.75;6.47;;;;;;;23.42;60.78;100311.19;4136575;28;20048;-64
2022/08/27 02:01:16;;;;;;;8.75;6.25;;;;;;;23.37;60.78;100305.22;4133771;28;20049;-64
2022/08/27 02:03:19;;;;;;;12.13;7.18;;;;;;;23.37;60.26;100305.22;4145874;28;20073;-64
2022/08/27 02:05:23;;;;;;;14.48;8.15;;;;;;;23.37;60.35;100299.91;4138894;28;20039;-64
2022/08/27 02:07:25;;;;;;;11.30;7.68;;;;;;;23.37;59.91;100300.75;4139284;28;20092;-65
2022/08/27 02:09:28;;;;;;;11.75;6.90;;;;;;;23.39;59.98;100300.69;4139287;28;20531;-64
2022/08/27 02:11:31;;;;;;;12.30;6.45;;;;;;;23.32;60.26;100303.59;4134007;28;20034;-64
2022/08/27 02:13:35;;;;;;;11.25;7.78;;;;;;;23.30;60.02;100305.44;4137902;28;20038;-64
2022/08/27 02:15:41;;;;;;;10.13;6.63;;;;;;;23.31;60.24;100293.06;4137149;28;20682;-64
2022/08/27 02:17:43;;;;;;;13.13;8.15;;;;;;;23.28;60.23;100299.34;4138098;28;20570;-64
2022/08/27 02:19:46;;;;;;;13.02;7.30;;;;;;;23.32;59.59;100293.00;4136507;28;20034;-64
2022/08/27 02:21:50;;;;;;;10.60;7.80;;;;;;;23.34;59.14;100288.47;4146093;28;20037;-65
2022/08/27 02:23:54;;;;;;;11.18;8.05;;;;;;;23.26;59.30;100287.06;4145715;28;20056;-65
2022/08/27 02:25:57;;;;;;;13.98;7.57;;;;;;;23.26;59.51;100292.38;4137430;28;20039;-65
2022/08/27 02:28:00;;;;;;;9.73;5.90;;;;;;;23.21;59.63;100289.06;4143989;28;20137;-64
2022/08/27 02:30:04;;;;;;;10.40;6.82;;;;;;;23.25;59.34;100288.88;4135654;28;20034;-64
2022/08/27 02:32:09;;;;;;;11.65;6.88;;;;;;;23.23;59.10;100297.81;4144842;28;20056;-64
2022/08/27 02:34:32;;;;;;;15.03;7.97;;;;;;;23.27;58.99;100289.66;4140000;28;20046;-64
2022/08/27 02:36:36;;;;;;;9.13;6.95;;;;;;;23.14;59.56;100293.75;4143950;28;20037;-64
2022/08/27 02:38:39;;;;;;;9.48;6.63;;;;;;;23.09;59.51;100293.91;4141866;28;20121;-65
2022/08/27 02:40:42;;;;;;;10.32;6.22;;;;;;;23.05;59.87;100292.28;4143075;28;20399;-64
2022/08/27 02:42:45;;;;;;;10.63;6.13;;;;;;;23.14;59.14;100299.06;4146947;28;20035;-64
2022/08/27 02:44:48;;;;;;;9.82;5.80;;;;;;;23.06;59.58;100290.53;4144216;28;20489;-64
2022/08/27 02:46:51;;;;;;;10.02;5.85;;;;;;;23.08;59.66;100297.47;4148548;28;20124;-64
2022/08/27 02:48:56;;;;;;;9.20;5.43;;;;;;;23.07;59.82;100297.53;4149140;28;20484;-65
2022/08/27 02:50:59;;;;;;;12.30;5.25;;;;;;;23.07;59.86;100295.78;4146370;28;20500;-64
2022/08/27 02:53:03;;;;;;;13.05;5.90;;;;;;;23.01;59.86;100285.38;4143096;28;20037;-65
2022/08/27 02:55:08;;;;;;;12.68;6.55;;;;;;;22.98;60.14;100291.69;4142710;28;20049;-65
2022/08/27 02:57:12;;;;;;;9.95;6.18;;;;;;;23.00;59.97;100297.78;4144826;28;20066;-65
2022/08/27 02:59:14;;;;;;;12.38;5.20;;;;;;;23.02;59.94;100295.94;4144526;28;20041;-65
2022/08/27 03:01:17;;;;;;;8.40;5.53;;;;;;;23.08;59.64;100293.97;4153900;28;20042;-65
2022/08/27 03:03:20;;;;;;;7.35;4.80;;;;;;;23.05;59.46;100299.41;4147643;28;20381;-64
2022/08/27 03:05:25;;;;;;;14.43;6.55;;;;;;;23.08;59.55;100299.28;4143090;28;20037;-64
2022/08/27 03:07:28;;;;;;;9.93;6.55;;;;;;;23.06;59.55;100298.47;4140739;28;20034;-64
2022/08/27 03:09:32;;;;;;;10.77;5.55;;;;;;;23.05;59.63;100294.09;4140028;28;20479;-65
2022/08/27 03:11:35;;;;;;;15.77;7.60;;;;;;;23.10;59.20;100292.09;4145102;28;20412;-64
2022/08/27 03:13:38;;;;;;;11.68;6.35;;;;;;;23.07;59.07;100289.59;4143605;28;20042;-64
2022/08/27 03:15:41;;;;;;;12.75;7.55;;;;;;;23.02;59.11;100282.66;4142557;28;20038;-65
2022/08/27 03:20:07;;;;;;;9.57;6.10;;;;;;;22.99;59.25;100289.91;4148270;28;20041;-64
2022/08/27 03:22:11;;;;;;;10.90;5.60;;;;;;;22.98;59.66;100283.75;4128054;28;20477;-64
2022/08/27 03:24:15;;;;;;;13.77;6.80;;;;;;;22.97;59.33;100276.72;4138890;28;20133;-64
2022/08/27 03:26:19;;;;;;;8.68;5.10;;;;;;;22.98;59.46;100291.69;4138667;28;20101;-65
2022/08/27 03:28:25;;;;;;;9.52;5.55;;;;;;;22.99;59.57;100289.91;4147504;28;20038;-65
2022/08/27 03:30:28;;;;;;;13.07;6.20;;;;;;;23.02;59.15;100290.63;4149069;28;20034;-64
2022/08/27 03:32:32;;;;;;;13.85;8.07;;;;;;;23.05;59.06;100294.94;4140979;28;20428;-65
2022/08/27 03:34:34;;;;;;;11.20;5.53;;;;;;;22.92;59.46;100289.28;4151335;28;20029;-64
2022/08/27 03:36:37;;;;;;;11.73;6.43;;;;;;;22.86;60.22;100288.66;4144765;28;20040;-64
2022/08/27 03:38:42;;;;;;;9.88;6.15;;;;;;;22.83;59.88;100295.78;4144594;28;20512;-65
2022/08/27 03:40:45;;;;;;;10.27;5.82;;;;;;;22.88;59.80;100293.00;4143220;28;20039;-65
2022/08/27 03:42:48;;;;;;;9.95;5.63;;;;;;;22.86;59.84;100289.53;4125359;28;20047;-64
2022/08/27 03:44:50;;;;;;;13.13;7.25;;;;;;;22.90;59.72;100290.28;4146998;28;20480;-64
2022/08/27 03:46:54;;;;;;;10.75;6.30;;;;;;;22.89;59.82;100293.84;4151402;28;20415;-65
2022/08/27 03:48:57;;;;;;;8.20;6.10;;;;;;;22.91;59.39;100292.88;4140350;28;20141;-64
2022/08/27 03:51:05;;;;;;;9.57;6.32;;;;;;;22.94;59.40;100291.84;4140425;28;20042;-64
2022/08/27 03:53:08;;;;;;;12.77;7.45;;;;;;;23.00;58.89;100303.09;4137825;28;20043;-64
2022/08/27 03:55:12;;;;;;;12.23;7.20;;;;;;;22.96;59.22;100296.19;4140853;28;20455;-64
2022/08/27 03:57:15;;;;;;;10.68;6.57;;;;;;;22.91;59.43;100295.53;4141743;28;20048;-64
2022/08/27 03:59:19;;;;;;;11.07;6.15;;;;;;;22.93;59.35;100296.31;4143287;28;20053;-64
2022/08/27 04:01:21;;;;;;;12.65;7.68;;;;;;;23.04;59.08;100297.66;4139785;28;20042;-64
2022/08/27 04:03:25;;;;;;;15.40;7.85;;;;;;;23.05;58.83;100299.41;4146792;28;20041;-64
2022/08/27 04:05:27;;;;;;;16.35;8.90;;;;;;;23.23;58.17;100295.16;4142092;28;20037;-64
2022/08/27 04:07:31;;;;;;;13.60;7.55;;;;;;;22.94;58.91;100298.03;4143161;28;20048;-64
2022/08/27 04:09:34;;;;;;;11.50;6.55;;;;;;;22.81;59.43;100302.97;4140063;28;20516;-64
2022/08/27 04:11:38;;;;;;;14.50;8.00;;;;;;;22.87;59.51;100295.66;4139144;28;20041;-64
2022/08/27 04:13:41;;;;;;;10.77;6.88;;;;;;;22.78;59.56;100297.78;4138244;28;20133;-65
2022/08/27 04:15:44;;;;;;;10.20;6.65;;;;;;;22.74;59.76;100303.28;4148287;28;20129;-65
2022/08/27 04:17:47;;;;;;;8.73;6.93;;;;;;;22.63;59.88;100301.91;4140474;28;20030;-65
2022/08/27 04:19:51;;;;;;;10.80;6.85;;;;;;;22.67;60.05;100299.97;4140404;28;20399;-64
2022/08/27 04:21:57;;;;;;;11.80;6.82;;;;;;;22.62;60.14;100294.88;4134700;28;20541;-65
2022/08/27 04:24:00;;;;;;;12.93;8.05;;;;;;;22.71;60.28;100308.69;4140621;28;20036;-65
2022/08/27 04:26:05;;;;;;;13.45;8.60;;;;;;;22.79;59.69;100303.94;4147000;28;20037;-65
2022/08/27 04:28:09;;;;;;;;;;;;;;;22.68;59.84;100307.03;4141448;28;20042;-65
2022/08/27 04:30:14;;;;;;;11.05;7.07;;;;;;;22.69;60.17;100305.22;4136523;28;19928;-65
2022/08/27 04:32:17;;;;;;;14.45;8.60;;;;;;;22.70;60.09;100314.91;4136491;28;20501;-64
2022/08/27 04:34:21;;;;;;;11.50;7.28;;;;;;;22.73;59.87;100312.13;4140492;28;20042;-64
2022/08/27 04:36:24;;;;;;;15.98;9.23;;;;;;;22.89;59.56;100307.09;4145892;28;20042;-64
2022/08/27 04:38:27;;;;;;;14.07;8.55;;;;;;;22.85;59.51;100314.28;4147053;28;20046;-65
2022/08/27 04:42:47;;;;;;;10.38;7.47;;;;;;;22.87;59.20;100312.47;4139320;28;20052;-64
2022/08/27 04:44:52;;;;;;;14.95;9.93;;;;;;;22.94;59.22;100318.38;4143484;28;20040;-64
2022/08/27 04:46:56;;;;;;;18.25;9.98;;;;;;;22.94;58.98;100319.25;4140182;28;20035;-64
2022/08/27 04:49:05;;;;;;;15.48;10.63;;;;;;;23.01;58.62;100326.03;4140068;28;20039;-65
2022/08/27 04:51:12;;;;;;;18.27;10.98;;;;;;;22.76;59.52;100330.56;4140993;28;20093;-65
2022/08/27 04:53:19;;;;;;;15.38;10.43;;;;;;;22.71;59.73;100329.91;4143104;28;20050;-64
2022/08/27 04:55:23;;;;;;;14.15;8.02;;;;;;;22.60;60.10;100325.84;4140631;28;20038;-64
2022/08/27 04:57:26;;;;;;;15.60;9.85;;;;;;;22.64;59.90;100332.75;4146223;28;20053;-64
2022/08/27 04:59:29;;;;;;;13.60;8.20;;;;;;;22.72;59.69;100328.94;4145967;28;20053;-64
2022/08/27 05:01:36;;;;;;;13.38;7.80;;;;;;;22.64;60.19;100323.94;4135350;28;20092;-64
2022/08/27 05:03:39;;;;;;;13.77;7.53;;;;;;;22.74;59.83;100327.13;4137355;28;20062;-64
2022/08/27 05:05:43;;;;;;;19.63;10.95;;;;;;;22.89;59.37;100326.50;4139689;28;20416;-65
2022/08/27 05:07:46;;;;;;;10.20;5.72;;;;;;;22.73;59.94;100333.34;4136368;28;20042;-64
2022/08/27 05:09:49;;;;;;;10.55;8.63;;;;;;;22.82;59.72;100335.63;4142343;28;20034;-65
2022/08/27 05:11:53;;;;;;;15.80;10.07;;;;;;;22.84;59.82;100333.78;4131430;28;20138;-65
2022/08/27 05:13:55;;;;;;;10.80;7.95;;;;;;;22.74;59.87;100329.78;4136923;28;20373;-64
2022/08/27 05:16:00;;;;;;;14.45;8.35;;;;;;;22.79;59.75;100326.03;4143318;28;20121;-64
2022/08/27 05:18:07;;;;;;;13.75;7.50;;;;;;;22.81;59.94;100331.25;4141196;28;20034;-64
2022/08/27 05:20:11;;;;;;;13.48;7.40;;;;;;;22.82;59.71;100335.63;4140413;28;20129;-64
2022/08/27 05:22:14;;;;;;;10.95;8.18;;;;;;;22.81;59.71;100326.81;4132767;28;21728;-64
2022/08/27 05:24:17;;;;;;;15.25;10.68;;;;;;;22.92;59.23;100326.38;4139708;28;20041;-65
2022/08/27 05:26:20;;;;;;;16.35;11.75;;;;;;;22.93;58.99;100325.47;4138111;28;20054;-64
2022/08/27 05:28:26;;;;;;;18.52;11.23;;;;;;;22.78;59.54;100326.06;4137856;28;20044;-64
2022/08/27 05:30:29;;;;;;;20.75;10.77;;;;;;;22.67;59.64;100322.03;4155339;28;20045;-64
2022/08/27 05:32:32;;;;;;;13.07;10.27;;;;;;;22.55;60.04;100322.50;4138568;28;20049;-64
2022/08/27 05:34:37;;;;;;;20.35;12.45;;;;;;;22.69;59.98;100329.06;4138415;28;20056;-64
2022/08/27 05:36:41;;;;;;;15.68;11.93;;;;;;;22.58;60.13;100332.13;4140039;28;20073;-64
2022/08/27 05:38:51;;;;;;;17.15;11.70;;;;;;;22.48;60.21;100328.97;4136962;28;20050;-64
2022/08/27 05:41:03;;;;;;;16.08;11.55;;;;;;;22.49;60.53;100322.75;4138798;28;20125;-64
2022/08/27 05:43:07;;;;;;;18.95;12.45;;;;;;;22.49;60.33;100322.75;4130994;28;20073;-64
2022/08/27 05:45:10;;;;;;;20.77;12.60;;;;;;;22.41;60.63;100320.38;4141039;28;20500;-64
2022/08/27 05:47:16;;;;;;;14.60;10.80;;;;;;;22.34;60.95;100323.31;4142897;28;20033;-64
2022/08/27 05:49:19;;;;;;;15.10;12.55;;;;;;;22.39;60.80;100331.97;4132173;28;20039;-65
2022/08/27 05:51:27;;;;;;;20.10;12.40;;;;;;;22.35;61.00;100327.69;4143279;28;20046;-65
2022/08/27 05:53:29;;;;;;;19.45;12.18;;;;;;;22.31;61.27;100330.44;4138613;28;20148;-65
2022/08/27 05:55:37;;;;;;;14.95;11.60;;;;;;;22.33;61.16;100327.75;4122560;28;20054;-65
2022/08/27 05:57:40;;;;;;;17.98;12.27;;;;;;;22.31;61.20;100333.06;4142326;28;20471;-65
2022/08/27 06:02:13;;;;;;;17.80;11.68;;;;;;;22.27;61.43;100336.75;4146024;28;20057;-65
2022/08/27 06:04:19;;;;;;;18.45;12.75;;;;;;;22.27;61.21;100334.09;4140586;28;20480;-65
2022/08/27 06:06:23;;;;;;;19.88;13.50;;;;;;;22.27;61.28;100338.53;4147849;28;20034;-65
2022/08/27 06:08:26;;;;;;;14.38;11.63;;;;;;;22.27;61.27;100338.53;4148030;28;20088;-65
2022/08/27 06:10:29;;;;;;;16.20;12.10;;;;;;;22.23;61.31;100340.41;4147003;28;20523;-65
2022/08/27 06:12:32;;;;;;;16.65;13.27;;;;;;;22.28;61.36;100340.25;4143227;28;20036;-65
2022/08/27 06:14:36;;;;;;;20.13;14.18;;;;;;;22.27;61.37;100350.00;4145815;28;20042;-66
2022/08/27 06:16:40;;;;;;;17.80;13.43;;;;;;;22.20;61.47;100351.13;4137906;28;20037;-65
2022/08/27 06:18:45;;;;;;;17.48;13.90;;;;;;;22.16;61.60;100346.84;4135666;28;20133;-64
2022/08/27 06:20:48;;;;;;;20.38;13.40;;;;;;;22.11;61.73;100338.22;4139725;28;20049;-65
2022/08/27 06:22:54;;;;;;;21.17;13.65;;;;;;;22.13;61.67;100342.53;4138936;28;20444;-65
2022/08/27 06:24:57;;;;;;;15.40;12.68;;;;;;;22.13;61.59;100346.97;4142403;28;20527;-65
2022/08/27 06:27:00;;;;;;;16.70;12.63;;;;;;;22.06;61.88;100341.00;4146738;28;20488;-65
2022/08/27 06:29:04;;;;;;;18.42;13.85;;;;;;;22.13;61.89;100345.19;4133379;28;20202;-65
2022/08/27 06:31:09;;;;;;;17.88;12.55;;;;;;;22.14;61.82;100344.25;4145796;28;20420;-65
2022/08/27 06:33:12;;;;;;;21.27;12.57;;;;;;;22.19;61.56;100341.44;4134978;28;20046;-64
2022/08/27 06:35:15;;;;;;;19.83;13.38;;;;;;;22.20;61.49;100339.69;4145454;28;20132;-65
2022/08/27 06:37:19;;;;;;;19.83;12.43;;;;;;;22.12;61.69;100345.22;4137509;28;20042;-65
2022/08/27 06:39:23;;;;;;;17.33;12.13;;;;;;;22.13;61.85;100341.69;4139774;28;20041;-65
2022/08/27 06:41:28;;;;;;;20.45;13.98;;;;;;;22.17;61.59;100345.94;4123968;28;20105;-65
2022/08/27 06:43:31;;;;;;;16.95;13.07;;;;;;;22.16;61.50;100346.84;4138563;28;20037;-65
2022/08/27 06:45:38;;;;;;;17.30;12.30;;;;;;;22.07;61.93;100347.19;4138361;28;20550;-65
2022/08/27 06:47:41;;;;;;;16.67;12.90;;;;;;;22.06;62.11;100341.00;4137397;28;20588;-65
2022/08/27 06:49:43;;;;;;;17.30;12.70;;;;;;;22.13;61.75;100352.28;4140950;28;20040;-65
2022/08/27 06:51:48;;;;;;;17.77;13.48;;;;;;;22.08;61.89;100355.09;4138680;28;20487;-65
2022/08/27 06:53:52;;;;;;;19.67;14.27;;;;;;;22.17;61.57;100350.41;4144651;28;20542;-65
2022/08/27 06:55:56;;;;;;;18.95;14.35;;;;;;;22.29;61.20;100355.22;4142343;28;20444;-65
2022/08/27 06:57:59;;;;;;;16.38;10.95;;;;;;;22.09;61.56;100354.19;4141598;28;20052;-65
2022/08/27 07:00:04;;;;;;;15.38;12.13;;;;;;;22.00;62.03;100357.13;4136100;28;21394;-65
2022/08/27 07:02:07;;;;;;;16.70;13.40;;;;;;;22.10;62.18;100355.03;4141712;28;20052;-65
2022/08/27 07:04:13;;;;;;;17.25;13.02;;;;;;;22.16;61.54;100361.88;4144141;28;20034;-64
2022/08/27 07:06:17;;;;;;;18.60;13.82;;;;;;;22.17;61.82;100361.84;4137688;28;20459;-66
2022/08/27 07:08:20;;;;;;;18.35;13.20;;;;;;;22.12;61.84;100367.31;4129769;28;20042;-65
2022/08/27 07:10:23;;;;;;;15.00;12.02;;;;;;;22.07;62.04;100365.72;4144246;28;20048;-64
2022/08/27 07:12:27;;;;;;;16.63;13.05;;;;;;;22.10;61.94;100363.81;4134387;28;20038;-64
2022/08/27 07:14:33;;;;;;;17.83;13.18;;;;;;;22.05;62.26;100364.91;4131098;28;20131;-64
2022/08/27 07:16:40;;;;;;;18.55;12.77;;;;;;;22.13;62.00;100368.16;4140182;28;20038;-64
2022/08/27 07:18:43;;;;;;;20.90;13.77;;;;;;;22.21;61.56;100366.09;4147135;28;20092;-64
2022/08/27 07:20:46;;;;;;;17.20;11.25;;;;;;;22.03;62.00;100362.31;4145436;28;20030;-64
2022/08/27 07:22:51;;;;;;;18.23;11.93;;;;;;;22.10;61.97;100376.22;4141795;28;20134;-64
2022/08/27 07:24:54;;;;;;;;;;;;;;;22.04;62.29;100366.69;4137389;28;20130;-64
2022/08/27 07:26:57;;;;;;;16.50;12.13;;;;;;;22.17;61.86;100369.78;4139448;28;19921;-64
2022/08/27 07:29:01;;;;;;;20.45;12.82;;;;;;;22.24;61.57;100373.94;4141029;28;20038;-64
2022/08/27 07:31:05;;;;;;;15.52;11.15;;;;;;;22.21;61.87;100376.69;4148560;28;20575;-64
2022/08/27 07:33:08;;;;;;;16.92;12.60;;;;;;;22.28;61.36;100378.22;4155483;28;20434;-64
2022/08/27 07:35:11;;;;;;;16.45;10.85;;;;;;;22.24;61.54;100368.66;4147156;28;20084;-65
2022/08/27 07:37:13;;;;;;;13.70;11.10;;;;;;;22.25;61.87;100370.38;4139407;28;20044;-64
2022/08/27 07:39:17;;;;;;;18.67;12.52;;;;;;;22.30;61.86;100379.00;4140989;28;20475;-65
2022/08/27 07:41:20;;;;;;;15.37;10.50;;;;;;;22.36;61.78;100377.97;4147465;28;20132;-66
2022/08/27 07:45:49;;;;;;;12.52;10.02;;;;;;;22.41;61.61;100380.44;4157080;28;20038;-65
2022/08/27 07:47:52;;;;;;;19.35;11.70;;;;;;;22.46;61.41;100384.66;4143842;28;20039;-64
2022/08/27 07:49:57;;;;;;;14.50;10.27;;;;;;;22.47;61.53;100385.50;4137579;28;20120;-64
2022/08/27 07:51:59;;;;;;;;;;;;;;;22.52;61.05;100391.50;4138716;28;20564;-65
2022/08/27 07:54:02;;;;;;;14.85;10.50;;;;;;;22.56;61.06;100390.50;4145476;28;19921;-64
2022/08/27 07:56:07;;;;;;;14.73;9.63;;;;;;;22.63;61.06;100383.16;4148373;28;20453;-64
2022/08/27 07:58:12;;;;;;;15.52;11.25;;;;;;;22.76;60.63;100396.81;4143644;28;20042;-65
2022/08/27 08:00:21;;;;;;;12.50;9.13;;;;;;;22.69;60.88;100390.88;4152113;28;20066;-66
2022/08/27 08:02:26;;;;;;;20.05;10.50;;;;;;;22.70;60.59;100387.31;4141535;28;20488;-64
2022/08/27 08:04:29;;;;;;;11.68;9.73;;;;;;;22.70;60.90;100394.41;4145958;28;20116;-66
2022/08/27 08:06:32;;;;;;;15.23;10.85;;;;;;;22.88;60.08;100392.84;4142134;28;20037;-63
2022/08/27 08:08:36;;;;;;;18.17;11.45;;;;;;;22.89;59.89;100395.44;4147737;28;20081;-65
2022/08/27 08:10:42;;;;;;;15.57;8.88;;;;;;;22.74;60.55;100398.69;4146342;28;20514;-65
2022/08/27 08:12:45;;;;;;;13.13;9.93;;;;;;;22.84;60.26;100398.25;4144830;28;20475;-65
2022/08/27 08:14:48;;;;;;;18.40;10.88;;;;;;;22.92;60.09;100397.09;4143114;28;20062;-65
2022/08/27 08:16:51;;;;;;;14.85;9.63;;;;;;;22.76;60.88;100396.81;4144893;28;20065;-66
2022/08/27 08:18:55;;;;;;;14.35;10.30;;;;;;;22.85;60.19;100407.06;4145937;28;20371;-65
2022/08/27 08:21:04;;;;;;;14.35;10.13;;;;;;;22.86;59.96;100400.84;4147804;28;20052;-64
2022/08/27 08:23:07;;;;;;;19.00;10.80;;;;;;;22.93;60.02;100399.69;4139645;28;20046;-64
2022/08/27 08:25:12;;;;;;;17.20;10.13;;;;;;;22.94;59.85;100400.56;4162710;28;20099;-64
2022/08/27 08:27:15;;;;;;;14.13;10.07;;;;;;;22.87;59.74;100402.59;4140378;28;20050;-65
2022/08/27 08:29:18;;;;;;;16.25;9.20;;;;;;;22.81;59.87;100402.84;4149334;28;20041;-65
2022/08/27 08:31:22;;;;;;;16.23;9.43;;;;;;;22.83;59.88;100406.28;4147258;28;20703;-63
2022/08/27 08:33:26;;;;;;;16.17;9.23;;;;;;;22.93;59.74;100401.50;4155507;28;20076;-63
2022/08/27 08:35:30;;;;;;;17.58;9.82;;;;;;;22.91;59.77;100404.22;4140295;28;20076;-64
2022/08/27 08:37:43;;;;;;;16.08;9.60;;;;;;;22.90;59.72;100402.47;4143286;28;20046;-64
2022/08/27 08:39:46;;;;;;;16.27;9.63;;;;;;;22.86;59.79;100403.50;4145916;28;20393;-65
2022/08/27 08:41:51;;;;;;;14.98;10.13;;;;;;;22.82;59.88;100401.88;4147325;28;20725;-67
2022/08/27 08:43:55;;;;;;;20.38;10.70;;;;;;;22.79;59.58;100394.06;4142675;28;20046;-65
2022/08/27 08:46:08;;;;;;;14.75;9.13;;;;;;;22.80;59.86;100399.28;4146565;28;20500;-63
2022/08/27 08:48:14;;;;;;;19.00;10.18;;;;;;;22.94;59.32;100405.84;4143457;28;20040;-63
2022/08/27 08:50:21;;;;;;;13.88;8.82;;;;;;;22.87;59.80;100407.00;4138438;28;20136;-63
2022/08/27 08:52:38;;;;;;;11.93;8.55;;;;;;;22.84;59.95;100400.91;4146244;28;20514;-64
2022/08/27 08:54:43;;;;;;;10.70;6.43;;;;;;;22.81;60.21;100398.38;4137556;28;20317;-63
2022/08/27 08:56:55;;;;;;;15.63;9.95;;;;;;;22.99;60.08;100407.41;4146914;28;20121;-64
2022/08/27 08:59:02;;;;;;;14.52;8.38;;;;;;;22.99;59.43;100404.75;4148552;28;20034;-64
2022/08/27 09:01:08;;;;;;;15.82;9.05;;;;;;;22.96;59.80;100396.94;4141197;28;20100;-64
2022/08/27 09:03:13;;;;;;;17.33;9.60;;;;;;;23.01;59.80;100412.66;4141043;28;20053;-64
2022/08/27 09:05:16;;;;;;;15.25;9.77;;;;;;;23.05;59.54;100413.41;4155159;28;20056;-64
2022/08/27 09:07:26;;;;;;;14.63;9.88;;;;;;;23.01;59.17;100407.34;4142731;28;20041;-65
2022/08/27 09:09:37;;;;;;;12.45;10.15;;;;;;;23.00;59.24;100408.28;4145787;28;20470;-65
2022/08/27 09:11:45;;;;;;;17.27;10.68;;;;;;;23.01;59.49;100410.00;4145395;28;20570;-65
2022/08/27 09:13:52;;;;;;;13.48;7.50;;;;;;;22.91;59.85;100403.31;4147982;28;20045;-65
2022/08/27 09:15:58;;;;;;;14.73;8.98;;;;;;;23.01;59.47;100407.34;4147860;28;20060;-64
2022/08/27 09:18:07;;;;;;;13.23;9.63;;;;;;;23.02;59.50;100409.94;4147884;28;20038;-64
2022/08/27 09:20:19;;;;;;;12.43;9.50;;;;;;;23.03;59.29;100413.47;4145802;28;20096;-64
2022/08/27 09:22:37;;;;;;;13.50;9.52;;;;;;;23.07;59.26;100417.75;4135550;28;20504;-65
2022/08/27 09:24:51;;;;;;;16.67;8.43;;;;;;;22.98;59.45;100411.00;4147322;28;20106;-65
2022/08/27 09:26:54;;;;;;;10.77;6.85;;;;;;;23.16;59.15;100419.22;4146853;28;20046;-64
2022/08/27 09:31:19;;;;;;;14.80;9.40;;;;;;;23.23;58.84;100414.50;4146610;28;20506;-65
2022/08/27 09:33:22;;;;;;;13.45;7.65;;;;;;;23.20;59.12;100425.25;4141603;28;20438;-65
2022/08/27 09:35:34;;;;;;;12.65;8.10;;;;;;;23.29;59.62;100423.09;4147063;28;20522;-64
2022/08/27 09:37:42;;;;;;;16.05;9.52;;;;;;;23.56;57.84;100422.91;4148057;28;20037;-64
2022/08/27 09:39:52;;;;;;;14.90;9.57;;;;;;;23.60;57.81;100419.22;4140089;28;20041;-65
2022/08/27 09:41:55;;;;;;;17.25;9.57;;;;;;;23.50;58.02;100433.78;4146339;28;20480;-65
2022/08/27 09:43:59;;;;;;;21.60;9.50;;;;;;;23.40;58.09;100421.81;4147785;28;20051;-65